Hattiesburg Bobby L Chain Municipal Airport
KHBG : rendu visible

Aérodrome :











RETROUVEZ-NOUS SUR...

 
LOGIN :

S'inscrire | Disclaimer

   EN    FR    IT 

 









Légende :    VFR   VFR Marginal   IFR   IFR Intensif   IFR Très Intensif
Visi : 
Plafond : 
>= 8 km
>= 3000ft
5 à 8 km
1000 à 3000 ft
1500m à 5 km
500 à 1000 ft
800 à 1500m
200 à 500 ft
< 800m
< 200 ft
Symboles :   Orages  Brouillard  Fortes neiges  Fortes précipitations  Vent > 20 kt






- Altitude de l'aérodrome : 151 ft


KHBG - Hattiesburg Bobby L Chain Municipal

DERNIER METAR :
  • 072253Z AUTO 13005KT 10SM CLR 32/19 A3004 RMK AO2 SLP169 T03220194

METARs EXPIRÉS :
  • 072153Z AUTO 32004KT 10SM CLR 33/19 A3005 RMK AO2 SLP172 T03280189
  • 072053Z AUTO 09006KT 10SM CLR 33/19 A3005 RMK AO2 SLP174 T03330189 58011

TAF KHBG
Valide du 08 à 00h jusqu'au 09 à 00h UTC


072328Z 0800/0824 34004KT P6SM FEW060
FIR KZHU / Amérique du Nord



MET'MAP, la Météo Aéronautique d'un coup d'oeil ! - Copyright ORBIFLY Décembre 2007 - Disclaimer

ORBIFLY MET'MAP TEAM :

Programmation & Développement : Alexandra Zaïnal
Sur une idée originale de : Baudouin d'Aumeries
Assistance à la programmation : Marc-Olivier Méhu
Soutien technique & logistique : Manuel Goepfert

Contact : metmap@orbifly.com




SOURCES & CREDITS :

   NOAA       Earth
Advisory